Time;durP1;ratioP1;P1;durP2;ratioP2;P2;SDS_P1;SDS_P2;PMS_P1;PMS_P2;Temp;Humidity;BMP_temperature;BMP_pressure;BME280_temperature;BME280_humidity;BME280_pressure;Samples;Min_cycle;Max_cycle;Signal;HPM_P1;HPM_P2
2023/09/26 00:00:20;;;;;;;9.73;6.18;;;15.00;96.90;;;;;;5074938;28;20374;-60
2023/09/26 00:02:53;;;;;;;9.43;5.82;;;15.00;99.90;;;;;;5074472;28;20080;-60
2023/09/26 00:05:20;;;;;;;8.93;5.63;;;14.90;99.40;;;;;;5073206;28;20037;-60
2023/09/26 00:07:48;;;;;;;10.57;6.10;;;14.90;99.90;;;;;;5074591;28;20123;-60
2023/09/26 00:10:14;;;;;;;9.35;6.00;;;14.80;99.70;;;;;;5074370;28;20047;-60
2023/09/26 00:12:39;;;;;;;8.70;5.65;;;14.80;99.10;;;;;;5074342;28;20083;-60
2023/09/26 00:15:07;;;;;;;9.90;6.15;;;14.80;99.90;;;;;;5074182;28;20074;-61
2023/09/26 00:17:33;;;;;;;10.77;6.03;;;14.80;99.90;;;;;;5074104;28;20549;-60
2023/09/26 00:19:59;;;;;;;10.30;5.93;;;14.80;99.90;;;;;;5073237;28;20091;-61
2023/09/26 00:22:25;;;;;;;10.20;6.40;;;14.80;99.90;;;;;;5074107;28;20505;-61
2023/09/26 00:24:51;;;;;;;9.07;5.82;;;14.80;99.90;;;;;;5074358;28;20044;-60
2023/09/26 00:27:18;;;;;;;8.90;6.22;;;14.80;99.90;;;;;;5074235;28;20051;-61
2023/09/26 00:29:44;;;;;;;8.88;6.32;;;14.70;99.90;;;;;;5074362;28;20099;-61
2023/09/26 00:32:10;;;;;;;10.15;6.00;;;14.70;99.90;;;;;;5074238;28;20048;-61
2023/09/26 00:34:36;;;;;;;9.32;5.60;;;14.70;99.90;;;;;;5073362;28;20097;-60
2023/09/26 00:37:02;;;;;;;10.45;6.68;;;14.70;99.90;;;;;;5073941;28;20156;-60
2023/09/26 00:39:28;;;;;;;9.38;6.07;;;14.70;99.90;;;;;;5074055;28;20041;-60
2023/09/26 00:41:54;;;;;;;9.05;5.78;;;14.80;99.90;;;;;;5072510;28;20047;-60
2023/09/26 00:44:19;;;;;;;9.55;6.03;;;14.80;99.90;;;;;;5072446;28;20040;-60
2023/09/26 00:46:45;;;;;;;11.15;5.80;;;14.80;99.90;;;;;;5073800;28;20051;-61
2023/09/26 00:49:11;;;;;;;9.40;6.88;;;14.80;99.90;;;;;;5073678;28;20447;-60
2023/09/26 00:51:38;;;;;;;10.00;6.53;;;14.70;99.90;;;;;;5073761;28;20048;-60
2023/09/26 00:54:05;;;;;;;10.48;6.57;;;14.70;99.90;;;;;;5073411;28;20186;-60
2023/09/26 00:56:31;;;;;;;15.98;6.90;;;14.70;99.90;;;;;;5073562;28;20047;-60
2023/09/26 00:59:00;;;;;;;9.57;6.30;;;14.70;99.90;;;;;;5072093;28;20041;-60
2023/09/26 01:01:29;;;;;;;10.45;6.40;;;14.70;99.90;;;;;;5073456;28;20047;-60
2023/09/26 01:03:56;;;;;;;11.20;6.70;;;14.70;99.90;;;;;;5073445;28;20391;-60
2023/09/26 01:06:21;;;;;;;10.93;6.40;;;14.70;99.90;;;;;;5073344;28;20044;-60
2023/09/26 01:08:47;;;;;;;10.65;6.88;;;14.70;99.90;;;;;;5073436;28;20106;-60
2023/09/26 01:11:13;;;;;;;10.45;7.10;;;14.60;99.90;;;;;;5072127;28;20071;-60
2023/09/26 01:13:39;;;;;;;9.82;7.15;;;14.60;99.90;;;;;;5071851;28;20427;-60
2023/09/26 01:16:18;;;;;;;10.50;7.05;;;14.60;99.90;;;;;;5072992;28;20056;-60
2023/09/26 01:18:45;;;;;;;10.77;7.18;;;14.60;99.90;;;;;;5073162;28;20451;-60
2023/09/26 01:21:11;;;;;;;10.73;7.55;;;14.60;99.90;;;;;;5072702;28;20519;-61
2023/09/26 01:23:40;;;;;;;11.23;7.15;;;14.60;99.90;;;;;;5073123;28;20045;-61
2023/09/26 01:26:05;;;;;;;11.27;7.00;;;14.60;99.90;;;;;;5072725;28;20062;-60
2023/09/26 01:28:31;;;;;;;11.57;6.53;;;14.60;99.90;;;;;;5072850;28;20489;-59
2023/09/26 01:30:57;;;;;;;9.75;6.85;;;14.50;99.90;;;;;;5072926;28;20089;-60
2023/09/26 01:33:23;;;;;;;9.57;6.78;;;14.60;99.90;;;;;;5072810;28;20123;-60
2023/09/26 01:35:51;;;;;;;8.90;6.55;;;14.40;99.90;;;;;;5071685;28;20385;-60
2023/09/26 01:38:19;;;;;;;10.13;6.95;;;14.50;99.90;;;;;;5071536;28;20182;-60
2023/09/26 01:40:45;;;;;;;9.70;6.43;;;14.50;99.90;;;;;;5072549;28;20037;-62
2023/09/26 01:43:11;;;;;;;9.48;6.82;;;14.40;99.90;;;;;;5072715;28;20035;-60
2023/09/26 01:45:37;;;;;;;14.32;7.00;;;14.40;99.90;;;;;;5072497;28;20431;-60
2023/09/26 01:48:05;;;;;;;11.68;7.07;;;14.30;99.90;;;;;;5072645;28;20384;-61
2023/09/26 01:50:33;;;;;;;10.45;6.78;;;14.30;99.90;;;;;;5072359;28;20496;-60
2023/09/26 01:52:59;;;;;;;11.32;6.88;;;14.30;99.90;;;;;;5072273;28;20044;-61
2023/09/26 01:55:25;;;;;;;12.05;7.30;;;14.30;99.90;;;;;;5072527;28;20123;-60
2023/09/26 01:57:51;;;;;;;10.70;6.75;;;14.30;99.90;;;;;;5070946;28;20037;-60
2023/09/26 02:00:19;;;;;;;10.65;7.30;;;14.20;99.90;;;;;;5071210;28;20037;-61
2023/09/26 02:02:49;;;;;;;12.05;7.55;;;14.20;99.90;;;;;;5072455;28;20393;-60
2023/09/26 02:05:17;;;;;;;11.75;7.25;;;14.10;99.90;;;;;;5072293;28;20060;-60
2023/09/26 02:07:43;;;;;;;13.75;7.88;;;14.20;99.90;;;;;;5072230;28;20382;-61
2023/09/26 02:10:09;;;;;;;10.60;7.90;;;14.10;99.90;;;;;;5072358;28;20048;-61
2023/09/26 02:12:37;;;;;;;12.18;8.15;;;14.10;99.90;;;;;;5072368;28;20044;-60
2023/09/26 02:15:06;;;;;;;12.13;7.47;;;14.10;99.90;;;;;;5072363;28;20051;-61
2023/09/26 02:17:34;;;;;;;10.73;7.75;;;14.10;99.90;;;;;;5072185;28;20040;-61
2023/09/26 02:20:08;;;;;;;12.60;8.40;;;14.10;99.90;;;;;;5072077;28;20044;-60
2023/09/26 02:22:35;;;;;;;11.93;8.00;;;14.10;99.90;;;;;;5071991;28;20733;-61
2023/09/26 02:25:01;;;;;;;12.32;8.35;;;14.00;99.90;;;;;;5072275;28;20041;-60
2023/09/26 02:27:26;;;;;;;11.88;8.25;;;14.10;99.90;;;;;;5072107;28;20507;-61
2023/09/26 02:29:52;;;;;;;11.52;9.02;;;14.10;99.90;;;;;;5071758;28;20051;-60
2023/09/26 02:32:18;;;;;;;15.77;8.40;;;14.10;99.90;;;;;;5072286;28;20036;-60
2023/09/26 02:34:44;;;;;;;11.40;7.90;;;14.10;99.90;;;;;;5071864;28;20067;-60
2023/09/26 02:37:10;;;;;;;11.20;8.45;;;14.10;99.90;;;;;;5072065;28;20404;-60
2023/09/26 02:39:36;;;;;;;13.23;8.80;;;14.00;99.90;;;;;;5071923;28;20036;-61
2023/09/26 02:42:02;;;;;;;12.00;7.95;;;14.00;99.90;;;;;;5072155;28;20033;-61
2023/09/26 02:44:28;;;;;;;13.60;7.75;;;14.00;99.90;;;;;;5071881;28;20045;-61
2023/09/26 02:46:54;;;;;;;13.48;8.27;;;13.90;99.90;;;;;;5072125;28;20120;-60
2023/09/26 02:49:20;;;;;;;10.95;8.50;;;13.90;99.90;;;;;;5071659;28;20040;-60
2023/09/26 02:51:46;;;;;;;15.45;8.45;;;13.90;99.90;;;;;;5071714;28;20511;-61
2023/09/26 02:54:12;;;;;;;10.90;7.45;;;13.80;99.90;;;;;;5071925;28;20044;-61
2023/09/26 02:56:37;;;;;;;12.40;8.05;;;13.90;99.90;;;;;;5072062;28;20047;-61
2023/09/26 02:59:03;;;;;;;11.82;7.95;;;13.90;99.90;;;;;;5074488;28;20450;-61
2023/09/26 03:01:29;;;;;;;9.60;7.15;;;13.90;99.90;;;;;;5075629;28;20040;-60
2023/09/26 03:03:55;;;;;;;10.75;7.00;;;13.90;99.90;;;;;;5076038;28;20191;-61
2023/09/26 03:06:21;;;;;;;10.27;7.10;;;13.90;99.90;;;;;;5074245;28;20047;-61
2023/09/26 03:08:46;;;;;;;10.52;7.00;;;13.90;99.90;;;;;;5075521;28;20052;-60
2023/09/26 03:11:12;;;;;;;11.68;7.45;;;13.80;99.90;;;;;;5075757;28;20051;-61
2023/09/26 03:13:38;;;;;;;11.10;7.00;;;13.90;99.90;;;;;;5075350;28;20078;-61
2023/09/26 03:16:06;;;;;;;12.90;7.85;;;13.90;99.90;;;;;;5075561;28;20041;-61
2023/09/26 03:18:32;;;;;;;14.20;7.97;;;13.80;99.90;;;;;;5075257;28;20568;-60
2023/09/26 03:21:03;;;;;;;10.75;7.03;;;13.80;99.90;;;;;;5075343;28;20049;-60
2023/09/26 03:23:29;;;;;;;10.02;7.03;;;13.80;99.90;;;;;;5075354;28;20132;-60
2023/09/26 03:25:55;;;;;;;12.25;7.32;;;13.80;99.90;;;;;;5075237;28;20124;-59
2023/09/26 03:28:20;;;;;;;11.13;7.68;;;13.80;99.90;;;;;;5075227;28;20040;-61
2023/09/26 03:30:46;;;;;;;10.95;7.85;;;13.70;99.90;;;;;;5074065;28;20499;-61
2023/09/26 03:33:12;;;;;;;10.13;7.03;;;13.80;99.90;;;;;;5075254;28;20054;-61
2023/09/26 03:35:38;;;;;;;9.90;7.15;;;13.80;99.90;;;;;;5073709;28;20123;-60
2023/09/26 03:38:03;;;;;;;10.60;7.40;;;13.80;99.90;;;;;;5074728;28;20049;-60
2023/09/26 03:40:29;;;;;;;10.88;8.10;;;13.80;99.90;;;;;;5073561;28;20047;-61
2023/09/26 03:42:55;;;;;;;10.90;7.47;;;13.70;99.90;;;;;;5074878;28;20040;-61
2023/09/26 03:45:24;;;;;;;11.10;7.25;;;13.80;99.90;;;;;;5073520;28;20037;-60
2023/09/26 03:47:50;;;;;;;10.77;7.28;;;13.80;99.90;;;;;;5075066;28;20131;-60
2023/09/26 03:50:16;;;;;;;13.10;7.88;;;13.70;99.90;;;;;;5074905;28;20234;-60
2023/09/26 03:52:42;;;;;;;10.70;7.75;;;13.70;99.90;;;;;;5074772;28;20040;-60
2023/09/26 03:55:08;;;;;;;10.55;7.60;;;13.70;99.90;;;;;;5074865;28;20427;-60
2023/09/26 03:57:34;;;;;;;11.48;7.53;;;13.70;99.90;;;;;;5073185;28;20036;-60
2023/09/26 04:00:06;;;;;;;11.27;7.95;;;13.60;99.90;;;;;;5073211;28;20055;-60
2023/09/26 04:02:31;;;;;;;10.43;7.78;;;13.70;99.90;;;;;;5074663;28;20105;-61
2023/09/26 04:04:58;;;;;;;10.02;7.50;;;13.70;99.90;;;;;;5074643;28;20032;-60
2023/09/26 04:07:28;;;;;;;13.52;7.40;;;13.70;99.90;;;;;;5074650;28;20090;-61
2023/09/26 04:09:53;;;;;;;13.40;7.53;;;13.70;99.90;;;;;;5073253;28;20048;-60
2023/09/26 04:12:19;;;;;;;11.10;7.68;;;13.70;99.90;;;;;;5074390;28;20040;-60
2023/09/26 04:14:44;;;;;;;13.00;7.53;;;13.60;99.90;;;;;;5074262;28;20048;-61
2023/09/26 04:17:10;;;;;;;12.52;8.15;;;13.60;99.90;;;;;;5074343;28;20051;-60
2023/09/26 04:19:36;;;;;;;11.60;7.75;;;13.60;99.90;;;;;;5074295;28;20066;-61
2023/09/26 04:22:03;;;;;;;12.55;8.25;;;13.60;99.90;;;;;;5074024;28;20053;-61
2023/09/26 04:24:29;;;;;;;11.57;8.15;;;13.70;99.90;;;;;;5074139;28;20074;-61
2023/09/26 04:26:54;;;;;;;10.82;7.20;;;13.70;99.90;;;;;;5074372;28;20048;-61
2023/09/26 04:29:20;;;;;;;10.65;7.90;;;13.70;99.90;;;;;;5074319;28;20373;-61
2023/09/26 04:31:46;;;;;;;11.98;8.00;;;13.70;99.90;;;;;;5073932;28;20435;-61
2023/09/26 04:34:11;;;;;;;13.23;8.88;;;13.80;99.90;;;;;;5073956;28;20580;-61
2023/09/26 04:36:37;;;;;;;12.73;8.90;;;13.70;99.90;;;;;;5073985;28;20472;-61
2023/09/26 04:39:03;;;;;;;10.93;8.02;;;13.80;99.90;;;;;;5074076;28;20400;-61
2023/09/26 04:41:28;;;;;;;12.23;8.60;;;13.80;99.90;;;;;;5074004;28;20040;-61
2023/09/26 04:43:54;;;;;;;13.38;9.10;;;13.70;99.90;;;;;;5073763;28;20105;-60
2023/09/26 04:46:20;;;;;;;11.35;8.85;;;13.70;99.90;;;;;;5073649;28;20127;-60
2023/09/26 04:48:46;;;;;;;12.73;8.07;;;13.70;99.90;;;;;;5073537;28;20058;-60
2023/09/26 04:51:14;;;;;;;12.38;8.48;;;13.70;99.90;;;;;;5073655;28;20079;-60
2023/09/26 04:53:40;;;;;;;13.35;9.13;;;13.80;99.90;;;;;;5073510;28;20051;-61
2023/09/26 04:56:07;;;;;;;12.43;8.98;;;13.70;99.90;;;;;;5073393;28;20554;-61
2023/09/26 04:58:33;;;;;;;12.13;9.25;;;13.70;99.90;;;;;;5073478;28;20067;-61
2023/09/26 05:01:09;;;;;;;12.20;9.07;;;13.70;99.90;;;;;;5073606;28;20032;-61
2023/09/26 05:03:35;;;;;;;13.20;8.68;;;13.70;99.90;;;;;;5073584;28;20040;-61
2023/09/26 05:06:00;;;;;;;12.00;8.95;;;13.70;99.90;;;;;;5072075;28;20561;-61
2023/09/26 05:08:26;;;;;;;13.45;9.43;;;13.70;99.90;;;;;;5073120;28;20037;-60
2023/09/26 05:10:52;;;;;;;12.93;9.20;;;13.70;99.90;;;;;;5072991;28;20044;-60
2023/09/26 05:13:18;;;;;;;11.68;8.52;;;13.70;99.90;;;;;;5072954;28;20032;-60
2023/09/26 05:15:44;;;;;;;13.52;10.00;;;13.70;99.90;;;;;;5073103;28;20078;-60
2023/09/26 05:18:09;;;;;;;15.68;9.98;;;13.70;99.90;;;;;;5073018;28;20090;-60
2023/09/26 05:20:35;;;;;;;14.25;9.35;;;13.70;99.90;;;;;;5072604;28;20048;-60
2023/09/26 05:23:03;;;;;;;14.43;9.85;;;13.80;99.90;;;;;;5072705;28;20057;-60
2023/09/26 05:25:28;;;;;;;13.85;9.52;;;13.80;99.90;;;;;;5072900;28;20046;-60
2023/09/26 05:27:54;;;;;;;13.30;9.50;;;13.80;99.90;;;;;;5072945;28;20124;-59
2023/09/26 05:30:21;;;;;;;13.52;9.88;;;13.80;99.90;;;;;;5071436;28;20063;-61
2023/09/26 05:32:46;;;;;;;11.82;9.45;;;13.80;99.90;;;;;;5072988;28;20087;-60
2023/09/26 05:35:12;;;;;;;13.38;9.63;;;13.80;99.90;;;;;;5072768;28;20072;-61
2023/09/26 05:37:38;;;;;;;13.98;9.88;;;13.80;99.90;;;;;;5072539;28;20044;-60
2023/09/26 05:40:09;;;;;;;13.40;9.15;;;13.80;99.90;;;;;;5072563;28;20043;-61
2023/09/26 05:42:36;;;;;;;14.00;9.60;;;13.80;99.90;;;;;;5072818;28;20040;-61
2023/09/26 05:45:06;;;;;;;13.48;10.35;;;13.80;99.90;;;;;;5072570;28;20051;-60
2023/09/26 05:47:32;;;;;;;13.60;9.38;;;13.80;99.90;;;;;;5072387;28;20127;-61
2023/09/26 05:49:57;;;;;;;13.32;9.02;;;13.90;98.90;;;;;;5072576;28;20124;-62
2023/09/26 05:52:23;;;;;;;16.00;9.80;;;13.90;98.10;;;;;;5071314;28;20345;-61
2023/09/26 05:54:49;;;;;;;14.45;9.68;;;13.90;97.80;;;;;;5071045;28;20481;-61
2023/09/26 05:57:15;;;;;;;13.38;8.70;;;13.90;96.20;;;;;;5072569;28;20044;-60
2023/09/26 05:59:41;;;;;;;13.43;9.05;;;14.00;96.50;;;;;;5072272;28;20477;-60
2023/09/26 06:02:13;;;;;;;14.57;8.65;;;14.00;97.60;;;;;;5072557;28;20036;-61
2023/09/26 06:04:42;;;;;;;;;;;14.00;96.90;;;;;;5072797;28;20036;-61
2023/09/26 06:07:08;;;;;;;11.25;7.97;;;14.00;96.20;;;;;;5072233;28;19921;-61
2023/09/26 06:09:36;;;;;;;14.80;9.68;;;14.10;96.30;;;;;;5072100;28;20041;-61
2023/09/26 06:12:03;;;;;;;12.32;8.98;;;14.10;95.30;;;;;;5071328;28;20097;-61
2023/09/26 06:14:28;;;;;;;13.82;9.63;;;14.20;94.00;;;;;;5072349;28;20048;-61
2023/09/26 06:16:54;;;;;;;14.00;9.23;;;14.10;94.00;;;;;;5072338;28;20048;-60
2023/09/26 06:19:19;;;;;;;13.45;8.88;;;14.20;93.30;;;;;;5072291;28;20041;-60
2023/09/26 06:21:45;;;;;;;15.65;8.85;;;14.30;93.30;;;;;;5071710;28;20044;-61
2023/09/26 06:24:11;;;;;;;12.18;8.52;;;14.30;92.50;;;;;;5072154;28;20041;-61
2023/09/26 06:26:37;;;;;;;13.32;8.68;;;14.40;91.40;;;;;;5072239;28;20048;-61
2023/09/26 06:29:02;;;;;;;13.98;8.82;;;14.50;91.20;;;;;;5071988;28;20123;-60
2023/09/26 06:31:28;;;;;;;13.23;9.25;;;14.50;90.00;;;;;;5071182;28;20036;-60
2023/09/26 06:33:56;;;;;;;14.40;8.95;;;14.60;87.40;;;;;;5071838;28;20051;-61
2023/09/26 06:36:21;;;;;;;14.13;9.52;;;14.50;81.50;;;;;;5071745;28;20040;-60
2023/09/26 06:38:47;;;;;;;12.05;8.77;;;14.50;83.60;;;;;;5071917;28;20370;-60
2023/09/26 06:41:14;;;;;;;13.13;9.18;;;14.60;80.60;;;;;;5070930;28;20047;-60
2023/09/26 06:43:39;;;;;;;12.07;8.80;;;14.50;79.60;;;;;;5072168;28;20051;-61
2023/09/26 06:46:08;;;;;;;13.00;9.57;;;14.60;82.80;;;;;;5072093;28;20040;-60
2023/09/26 06:48:37;;;;;;;12.15;8.48;;;14.60;84.70;;;;;;5071920;28;20300;-60
2023/09/26 06:51:03;;;;;;;15.95;10.05;;;14.70;85.30;;;;;;5071782;28;20063;-61
2023/09/26 06:53:29;;;;;;;13.55;9.18;;;14.80;78.60;;;;;;5071958;28;20466;-60
2023/09/26 06:56:03;;;;;;;12.65;9.10;;;14.80;68.10;;;;;;5071722;28;20500;-61
2023/09/26 06:58:29;;;;;;;14.25;8.90;;;14.80;69.20;;;;;;5071735;28;20044;-60
2023/09/26 07:00:55;;;;;;;12.77;8.68;;;14.90;70.20;;;;;;5071963;28;20406;-61
2023/09/26 07:03:20;;;;;;;12.98;9.57;;;14.90;64.10;;;;;;5071766;28;20041;-61
2023/09/26 07:05:47;;;;;;;14.57;10.00;;;15.00;60.70;;;;;;5071682;28;20037;-61
2023/09/26 07:08:14;;;;;;;12.77;8.50;;;15.00;58.40;;;;;;5070569;28;20082;-60
2023/09/26 07:10:40;;;;;;;13.35;8.98;;;15.00;57.60;;;;;;5071749;28;20044;-61
2023/09/26 07:13:06;;;;;;;13.52;8.95;;;15.00;55.30;;;;;;5071545;28;20066;-61
2023/09/26 07:15:32;;;;;;;13.73;8.60;;;15.00;53.60;;;;;;5071547;28;20082;-61
2023/09/26 07:17:59;;;;;;;13.63;8.88;;;14.90;50.60;;;;;;5071451;28;20044;-60
2023/09/26 07:20:28;;;;;;;14.27;8.45;;;15.00;50.00;;;;;;5071451;28;20560;-61
2023/09/26 07:22:54;;;;;;;13.38;9.10;;;15.00;52.20;;;;;;5071459;28;20052;-60
2023/09/26 07:25:21;;;;;;;13.48;9.40;;;15.00;53.00;;;;;;5070481;28;20087;-60
2023/09/26 07:27:46;;;;;;;13.60;9.15;;;15.00;53.90;;;;;;5071466;28;20048;-61
2023/09/26 07:30:12;;;;;;;16.77;9.45;;;15.00;54.50;;;;;;5071535;28;20048;-60
2023/09/26 07:32:39;;;;;;;13.27;9.05;;;15.00;54.00;;;;;;5053426;28;20040;-60
2023/09/26 07:35:05;;;;;;;13.90;8.95;;;15.00;53.30;;;;;;5071475;28;20048;-61
2023/09/26 07:37:34;;;;;;;12.02;8.73;;;15.00;52.00;;;;;;5053389;28;20045;-61
2023/09/26 07:40:03;;;;;;;12.57;8.40;;;15.10;46.10;;;;;;5071289;28;20117;-60
2023/09/26 07:42:28;;;;;;;12.77;8.75;;;15.10;47.20;;;;;;5071292;28;20044;-61
2023/09/26 07:45:00;;;;;;;13.40;9.07;;;15.10;46.90;;;;;;5074676;28;20093;-61
2023/09/26 07:47:25;;;;;;;11.90;8.65;;;15.10;44.50;;;;;;5073531;28;20045;-60
2023/09/26 07:49:51;;;;;;;15.50;9.13;;;15.10;43.70;;;;;;5074942;28;20041;-60
2023/09/26 07:52:17;;;;;;;15.10;8.88;;;15.10;45.40;;;;;;5074754;28;20089;-60
2023/09/26 07:54:43;;;;;;;13.68;8.05;;;15.20;46.50;;;;;;5073682;28;20045;-59
2023/09/26 07:57:08;;;;;;;14.65;8.75;;;15.20;46.60;;;;;;5074610;28;20082;-61
2023/09/26 07:59:34;;;;;;;17.95;10.02;;;15.30;48.50;;;;;;5056961;28;20044;-60
2023/09/26 08:02:00;;;;;;;13.77;8.38;;;15.30;49.10;;;;;;5074529;28;20039;-61
2023/09/26 08:04:25;;;;;;;12.45;8.30;;;15.30;45.50;;;;;;5074662;28;20104;-60
2023/09/26 08:06:51;;;;;;;15.00;8.55;;;15.40;46.40;;;;;;5074586;28;20137;-60
2023/09/26 08:09:17;;;;;;;15.27;8.93;;;15.40;45.60;;;;;;5074751;28;20120;-60
2023/09/26 08:11:43;;;;;;;13.55;9.38;;;15.50;46.40;;;;;;5074494;28;20457;-61
2023/09/26 08:14:09;;;;;;;14.35;8.95;;;15.60;45.90;;;;;;5074256;28;20124;-60
2023/09/26 08:16:34;;;;;;;13.75;9.35;;;15.70;43.80;;;;;;5074131;28;20044;-60
2023/09/26 08:19:00;;;;;;;13.18;9.05;;;15.70;45.30;;;;;;5074594;28;20090;-61
2023/09/26 08:21:26;;;;;;;13.27;8.30;;;15.80;44.50;;;;;;5074195;28;20048;-61
2023/09/26 08:23:53;;;;;;;13.80;9.27;;;15.80;44.00;;;;;;5074386;28;20040;-61
2023/09/26 08:26:19;;;;;;;13.70;8.70;;;15.90;44.50;;;;;;5074145;28;20801;-61
2023/09/26 08:28:45;;;;;;;12.70;9.23;;;15.90;42.60;;;;;;5074011;28;20048;-60
2023/09/26 08:31:15;;;;;;;14.02;9.65;;;15.90;45.00;;;;;;5074330;28;20116;-61
2023/09/26 08:33:43;;;;;;;14.38;9.25;;;15.90;42.20;;;;;;5074022;28;20055;-60
2023/09/26 08:36:16;;;;;;;15.88;9.60;;;15.90;43.70;;;;;;5074108;28;20041;-60
2023/09/26 08:38:46;;;;;;;14.38;9.45;;;15.90;44.80;;;;;;5074173;28;20036;-61
2023/09/26 08:41:13;;;;;;;13.48;9.25;;;15.80;45.80;;;;;;5073744;28;20392;-61
2023/09/26 08:43:38;;;;;;;12.43;8.75;;;15.90;42.80;;;;;;5073654;28;20036;-61
2023/09/26 08:46:06;;;;;;;14.65;9.70;;;15.70;44.00;;;;;;5073767;28;20450;-61
2023/09/26 08:48:33;;;;;;;13.80;9.07;;;15.70;43.80;;;;;;5073514;28;20040;-59
2023/09/26 08:50:59;;;;;;;14.25;9.43;;;15.80;45.10;;;;;;5073540;28;20500;-61
2023/09/26 08:53:25;;;;;;;14.10;9.05;;;15.80;44.50;;;;;;5073836;28;20082;-60
2023/09/26 08:55:52;;;;;;;12.95;8.55;;;15.90;47.00;;;;;;5073185;28;20083;-60
2023/09/26 08:58:20;;;;;;;15.43;9.70;;;15.90;46.80;;;;;;5072082;28;20496;-61
2023/09/26 09:00:46;;;;;;;15.55;9.80;;;15.90;48.50;;;;;;5073644;28;20040;-60
2023/09/26 09:03:15;;;;;;;14.90;9.80;;;16.00;49.20;;;;;;5073549;28;20439;-60
2023/09/26 09:05:41;;;;;;;13.10;10.13;;;16.20;44.80;;;;;;5073465;28;20037;-60
2023/09/26 09:08:08;;;;;;;14.32;9.55;;;16.20;40.90;;;;;;5073636;28;20052;-61
2023/09/26 09:10:56;;;;;;;15.35;9.45;;;16.30;40.20;;;;;;5072160;28;20053;-61
2023/09/26 09:13:37;;;;;;;15.02;9.85;;;16.50;33.60;;;;;;5073378;28;20118;-61
2023/09/26 09:16:11;;;;;;;15.05;9.00;;;16.60;27.50;;;;;;5073169;28;20036;-60
2023/09/26 09:18:38;;;;;;;16.42;8.90;;;16.70;25.40;;;;;;5073167;28;20068;-60
2023/09/26 09:21:21;;;;;;;15.27;8.68;;;16.80;22.80;;;;;;5072700;28;20119;-61
2023/09/26 09:23:47;;;;;;;;;;;16.90;17.00;;;;;;5073629;28;20045;-61
2023/09/26 09:26:12;;;;;;;13.02;8.43;;;17.00;20.40;;;;;;5072901;28;19931;-61
2023/09/26 09:28:38;;;;;;;12.20;8.20;;;17.20;27.30;;;;;;5072847;28;20041;-61
2023/09/26 09:31:04;;;;;;;13.05;8.40;;;17.30;21.70;;;;;;5072880;28;20122;-60
2023/09/26 09:33:31;;;;;;;13.10;8.85;;;17.40;23.00;;;;;;5072717;28;20493;-61
2023/09/26 09:35:57;;;;;;;13.85;8.45;;;17.30;14.90;;;;;;5071726;28;20086;-61
2023/09/26 09:38:23;;;;;;;13.05;8.20;;;17.40;18.00;;;;;;5073019;28;20397;-61
2023/09/26 09:40:50;;;;;;;13.32;8.75;;;17.50;19.50;;;;;;5072928;28;20044;-61
2023/09/26 09:43:16;;;;;;;16.05;8.52;;;17.50;14.20;;;;;;5072805;28;20040;-59
2023/09/26 09:45:43;;;;;;;13.75;8.88;;;17.60;20.10;;;;;;5072622;28;20039;-61
2023/09/26 09:48:09;;;;;;;14.20;8.40;;;17.60;19.70;;;;;;5072743;28;20076;-60
2023/09/26 09:50:39;;;;;;;12.70;8.85;;;17.70;18.30;;;;;;5072489;28;20044;-61
2023/09/26 09:53:05;;;;;;;14.05;7.68;;;17.90;15.40;;;;;;5072368;28;20084;-61
2023/09/26 09:55:38;;;;;;;13.52;8.30;;;18.10;10.90;;;;;;5072372;28;20083;-61
2023/09/26 09:58:10;;;;;;;13.57;7.40;;;18.20;9.80;;;;;;5072369;28;20086;-61
2023/09/26 10:00:40;;;;;;;14.55;8.02;;;18.20;5.60;;;;;;5072273;28;20090;-61
2023/09/26 10:03:06;;;;;;;10.98;6.85;;;18.30;1.00;;;;;;5072357;28;20032;-61
2023/09/26 10:05:34;;;;;;;12.23;6.85;;;18.40;4.80;;;;;;5072462;28;20107;-61
2023/09/26 10:08:02;;;;;;;10.80;6.57;;;18.50;4.20;;;;;;5070374;28;20114;-61
2023/09/26 10:10:28;;;;;;;11.63;6.25;;;18.60;1.50;;;;;;5072443;28;20093;-61
2023/09/26 10:12:54;;;;;;;12.90;6.88;;;18.70;1.00;;;;;;5072236;28;20121;-61
2023/09/26 10:15:20;;;;;;;11.75;6.57;;;18.80;1.00;;;;;;5072151;28;20484;-61
2023/09/26 10:17:48;;;;;;;11.13;6.53;;;18.90;1.00;;;;;;5072156;28;20044;-61
2023/09/26 10:20:15;;;;;;;11.65;5.78;;;19.00;1.00;;;;;;5072211;28;20091;-61
2023/09/26 10:22:43;;;;;;;10.27;5.60;;;19.10;1.00;;;;;;5071713;28;20049;-60
2023/09/26 10:25:18;;;;;;;9.52;5.35;;;19.10;1.00;;;;;;5071979;28;20376;-61
2023/09/26 10:27:47;;;;;;;9.88;5.20;;;19.10;1.00;;;;;;5071932;28;20083;-61
2023/09/26 10:30:18;;;;;;;12.15;6.03;;;19.20;1.00;;;;;;5071840;28;20079;-60
2023/09/26 10:32:44;;;;;;;10.48;5.72;;;19.20;1.00;;;;;;5072168;28;20137;-61
2023/09/26 10:35:13;;;;;;;10.18;5.25;;;19.30;1.00;;;;;;5072164;28;20044;-61
2023/09/26 10:37:40;;;;;;;10.60;5.38;;;19.30;1.00;;;;;;5072053;28;20052;-61
2023/09/26 10:40:26;;;;;;;12.45;6.10;;;19.20;1.00;;;;;;5071831;28;20404;-61
2023/09/26 10:42:52;;;;;;;10.63;5.10;;;19.20;1.00;;;;;;5071936;28;20044;-61
2023/09/26 10:45:18;;;;;;;12.00;5.03;;;19.20;1.00;;;;;;5072197;28;20048;-61
2023/09/26 10:47:44;;;;;;;11.85;5.53;;;19.20;1.00;;;;;;5071853;28;20094;-60
2023/09/26 10:50:14;;;;;;;10.55;5.50;;;19.30;1.00;;;;;;5070699;28;20048;-61
2023/09/26 10:52:49;;;;;;;9.18;5.30;;;19.30;1.00;;;;;;5071681;28;20094;-60
2023/09/26 10:55:16;;;;;;;10.95;5.32;;;19.40;1.00;;;;;;5071543;28;20040;-61
2023/09/26 10:57:45;;;;;;;12.60;5.70;;;19.40;1.00;;;;;;5071591;28;20124;-61
2023/09/26 11:00:13;;;;;;;10.70;5.15;;;19.20;1.00;;;;;;5071713;28;20137;-61
2023/09/26 11:02:39;;;;;;;11.93;4.93;;;19.10;1.00;;;;;;5053814;28;20041;-61
2023/09/26 11:05:13;;;;;;;10.45;4.75;;;19.10;1.00;;;;;;5071533;28;20120;-62
2023/09/26 11:07:41;;;;;;;9.15;4.60;;;19.10;1.00;;;;;;5071719;28;20044;-61
2023/09/26 11:10:12;;;;;;;8.02;4.43;;;19.10;1.00;;;;;;5070430;28;20087;-61
2023/09/26 11:12:38;;;;;;;;;;;19.10;1.00;;;;;;5072127;28;20388;-61
2023/09/26 11:15:05;;;;;;;8.25;3.83;;;19.10;1.00;;;;;;5071701;28;19920;-61
2023/09/26 11:17:32;;;;;;;11.75;4.82;;;19.20;1.00;;;;;;5071273;28;20123;-61
2023/09/26 11:19:59;;;;;;;10.55;4.90;;;19.20;1.00;;;;;;5075383;28;20083;-61
2023/09/26 11:22:27;;;;;;;8.93;4.40;;;19.20;1.00;;;;;;5075250;28;20059;-61
2023/09/26 11:25:06;;;;;;;9.45;4.55;;;19.20;1.00;;;;;;5075348;28;20059;-61
2023/09/26 11:27:39;;;;;;;8.40;4.30;;;19.30;1.00;;;;;;5075198;28;20430;-59
2023/09/26 11:30:12;;;;;;;9.88;4.93;;;19.40;1.00;;;;;;5075152;28;20072;-61
2023/09/26 11:32:39;;;;;;;8.52;4.15;;;19.30;1.00;;;;;;5075086;28;20032;-61
2023/09/26 11:35:06;;;;;;;9.43;4.72;;;19.20;1.00;;;;;;5075248;28;20059;-61
2023/09/26 11:37:32;;;;;;;9.55;4.00;;;19.30;1.00;;;;;;5075147;28;20052;-61
2023/09/26 11:39:58;;;;;;;9.43;4.57;;;19.30;1.00;;;;;;5073760;28;20056;-60
2023/09/26 11:42:23;;;;;;;9.25;4.60;;;19.30;1.00;;;;;;5075153;28;20412;-61
2023/09/26 11:44:56;;;;;;;10.93;4.85;;;19.20;1.00;;;;;;5074720;28;20044;-61
2023/09/26 11:47:24;;;;;;;8.60;3.85;;;19.20;1.00;;;;;;5073758;28;20084;-60
2023/09/26 11:49:51;;;;;;;8.98;3.78;;;19.30;1.00;;;;;;5073620;28;20490;-60
2023/09/26 11:52:18;;;;;;;8.25;3.95;;;19.20;1.00;;;;;;5073455;28;20404;-61
2023/09/26 11:54:44;;;;;;;10.00;4.30;;;19.30;1.00;;;;;;5074770;28;20044;-61
2023/09/26 11:57:13;;;;;;;8.23;4.32;;;19.30;1.00;;;;;;5073278;28;20079;-61
2023/09/26 11:59:40;;;;;;;8.80;4.60;;;19.30;1.00;;;;;;5074948;28;20144;-61
2023/09/26 12:02:08;;;;;;;11.20;4.22;;;19.40;1.00;;;;;;5074784;28;20422;-60
2023/09/26 12:04:34;;;;;;;8.68;4.40;;;19.40;1.00;;;;;;5074680;28;20043;-61
2023/09/26 12:07:00;;;;;;;9.68;4.82;;;19.40;1.00;;;;;;5074470;28;20048;-61
2023/09/26 12:09:28;;;;;;;9.32;4.43;;;19.60;1.00;;;;;;5074737;28;20047;-61
2023/09/26 12:11:55;;;;;;;8.18;4.45;;;19.60;1.00;;;;;;5074466;28;20040;-61
2023/09/26 12:14:21;;;;;;;8.88;4.40;;;19.60;1.00;;;;;;5074357;28;20048;-61
2023/09/26 12:16:54;;;;;;;9.30;4.78;;;19.80;1.00;;;;;;5073170;28;20106;-61
2023/09/26 12:19:21;;;;;;;9.25;4.10;;;20.00;1.00;;;;;;5074467;28;20064;-60
2023/09/26 12:21:49;;;;;;;9.52;4.25;;;20.10;1.00;;;;;;5074162;28;20053;-61
2023/09/26 12:24:15;;;;;;;8.07;4.05;;;20.10;1.00;;;;;;5074125;28;20571;-61
2023/09/26 12:26:41;;;;;;;8.02;3.47;;;20.40;1.00;;;;;;5074361;28;20124;-61
2023/09/26 12:29:09;;;;;;;8.05;3.75;;;20.40;1.00;;;;;;5072305;28;20048;-61
2023/09/26 12:31:34;;;;;;;10.07;4.43;;;20.40;1.00;;;;;;5073658;28;20464;-61
2023/09/26 12:34:02;;;;;;;9.07;4.07;;;20.40;1.00;;;;;;5074236;28;20092;-61
2023/09/26 12:36:28;;;;;;;7.63;4.10;;;20.40;1.00;;;;;;5073975;28;20058;-61
2023/09/26 12:38:54;;;;;;;7.60;3.65;;;20.50;1.00;;;;;;5073891;28;20469;-61